sensor_id;sensor_type;location;lat;lon;timestamp;P1;durP1;ratioP1;P2;durP2;ratioP2
26530;SDS011;14201;43.188;24.160;2023-02-17T08:08:54;14.05;;;7.75;;
26530;SDS011;14201;43.188;24.160;2023-02-17T08:11:40;15.32;;;8.48;;
26530;SDS011;14201;43.188;24.160;2023-02-17T08:14:26;15.38;;;7.82;;
26530;SDS011;14201;43.188;24.160;2023-02-17T08:16:53;18.85;;;8.90;;
26530;SDS011;14201;43.188;24.160;2023-02-17T08:19:20;16.48;;;8.70;;
26530;SDS011;14201;43.188;24.160;2023-02-17T08:21:46;14.50;;;7.78;;
26530;SDS011;14201;43.188;24.160;2023-02-17T08:24:11;13.95;;;7.75;;
26530;SDS011;14201;43.188;24.160;2023-02-17T08:26:37;13.63;;;7.97;;
26530;SDS011;14201;43.188;24.160;2023-02-17T08:29:03;11.65;;;7.22;;
26530;SDS011;14201;43.188;24.160;2023-02-17T08:31:31;12.60;;;7.53;;
26530;SDS011;14201;43.188;24.160;2023-02-17T08:34:03;14.13;;;7.15;;
26530;SDS011;14201;43.188;24.160;2023-02-17T08:36:30;14.77;;;7.28;;
26530;SDS011;14201;43.188;24.160;2023-02-17T08:38:57;11.27;;;6.95;;
26530;SDS011;14201;43.188;24.160;2023-02-17T08:41:29;10.63;;;6.47;;
26530;SDS011;14201;43.188;24.160;2023-02-17T08:43:58;11.07;;;6.13;;
26530;SDS011;14201;43.188;24.160;2023-02-17T08:46:26;8.43;;;4.60;;
26530;SDS011;14201;43.188;24.160;2023-02-17T08:48:55;13.63;;;5.60;;
26530;SDS011;14201;43.188;24.160;2023-02-17T08:51:22;10.40;;;5.28;;
26530;SDS011;14201;43.188;24.160;2023-02-17T08:56:19;5.97;;;4.00;;
26530;SDS011;14201;43.188;24.160;2023-02-17T08:58:48;5.38;;;3.72;;
26530;SDS011;14201;43.188;24.160;2023-02-17T09:01:14;8.43;;;4.13;;
26530;SDS011;14201;43.188;24.160;2023-02-17T09:03:43;6.18;;;4.05;;
26530;SDS011;14201;43.188;24.160;2023-02-17T09:06:09;7.32;;;4.30;;
26530;SDS011;14201;43.188;24.160;2023-02-17T09:08:35;6.70;;;4.07;;
26530;SDS011;14201;43.188;24.160;2023-02-17T09:11:03;7.15;;;4.07;;
26530;SDS011;14201;43.188;24.160;2023-02-17T09:13:29;6.53;;;4.30;;
26530;SDS011;14201;43.188;24.160;2023-02-17T09:15:55;6.70;;;4.20;;
26530;SDS011;14201;43.188;24.160;2023-02-17T09:18:21;9.25;;;4.30;;
26530;SDS011;14201;43.188;24.160;2023-02-17T09:20:47;6.80;;;4.45;;
26530;SDS011;14201;43.188;24.160;2023-02-17T09:23:13;6.32;;;3.83;;
26530;SDS011;14201;43.188;24.160;2023-02-17T09:25:39;6.18;;;3.83;;
26530;SDS011;14201;43.188;24.160;2023-02-17T09:28:05;5.82;;;3.70;;
26530;SDS011;14201;43.188;24.160;2023-02-17T09:30:30;5.07;;;3.50;;
26530;SDS011;14201;43.188;24.160;2023-02-17T09:32:56;6.97;;;2.90;;
26530;SDS011;14201;43.188;24.160;2023-02-17T09:35:22;4.55;;;2.83;;
26530;SDS011;14201;43.188;24.160;2023-02-17T09:37:51;4.38;;;2.60;;
26530;SDS011;14201;43.188;24.160;2023-02-17T09:40:21;5.20;;;3.22;;
26530;SDS011;14201;43.188;24.160;2023-02-17T09:42:54;4.82;;;2.80;;
26530;SDS011;14201;43.188;24.160;2023-02-17T09:45:21;7.65;;;3.13;;
26530;SDS011;14201;43.188;24.160;2023-02-17T09:47:52;5.90;;;3.08;;
26530;SDS011;14201;43.188;24.160;2023-02-17T09:50:34;4.32;;;2.95;;
26530;SDS011;14201;43.188;24.160;2023-02-17T09:53:16;7.18;;;3.00;;
26530;SDS011;14201;43.188;24.160;2023-02-17T09:55:48;5.07;;;3.08;;
26530;SDS011;14201;43.188;24.160;2023-02-17T09:58:27;4.88;;;3.20;;
26530;SDS011;14201;43.188;24.160;2023-02-17T10:00:58;4.03;;;2.50;;
26530;SDS011;14201;43.188;24.160;2023-02-17T10:06:04;5.47;;;3.40;;
26530;SDS011;14201;43.188;24.160;2023-02-17T10:08:52;9.70;;;2.92;;
26530;SDS011;14201;43.188;24.160;2023-02-17T10:13:49;6.85;;;3.63;;
26530;SDS011;14201;43.188;24.160;2023-02-17T10:16:26;7.43;;;3.20;;
26530;SDS011;14201;43.188;24.160;2023-02-17T10:19:00;5.07;;;2.72;;
26530;SDS011;14201;43.188;24.160;2023-02-17T10:21:36;6.97;;;3.10;;
26530;SDS011;14201;43.188;24.160;2023-02-17T10:24:06;6.95;;;3.38;;
26530;SDS011;14201;43.188;24.160;2023-02-17T10:29:54;6.40;;;3.58;;
26530;SDS011;14201;43.188;24.160;2023-02-17T10:32:26;5.88;;;3.13;;
26530;SDS011;14201;43.188;24.160;2023-02-17T10:35:03;5.70;;;3.60;;
26530;SDS011;14201;43.188;24.160;2023-02-17T10:40:11;5.35;;;3.05;;
26530;SDS011;14201;43.188;24.160;2023-02-17T10:42:54;5.75;;;3.10;;
26530;SDS011;14201;43.188;24.160;2023-02-17T10:50:30;4.03;;;2.95;;
26530;SDS011;14201;43.188;24.160;2023-02-17T10:52:56;4.43;;;3.10;;
26530;SDS011;14201;43.188;24.160;2023-02-17T10:55:35;4.50;;;3.05;;
26530;SDS011;14201;43.188;24.160;2023-02-17T10:58:10;10.35;;;2.97;;
26530;SDS011;14201;43.188;24.160;2023-02-17T11:00:43;7.15;;;3.17;;
26530;SDS011;14201;43.188;24.160;2023-02-17T11:03:22;4.28;;;2.75;;
26530;SDS011;14201;43.188;24.160;2023-02-17T11:08:24;4.53;;;3.03;;
26530;SDS011;14201;43.188;24.160;2023-02-17T11:10:58;6.00;;;2.75;;
26530;SDS011;14201;43.188;24.160;2023-02-17T11:16:18;6.15;;;3.47;;
26530;SDS011;14201;43.188;24.160;2023-02-17T11:18:52;5.13;;;3.05;;
26530;SDS011;14201;43.188;24.160;2023-02-17T11:21:20;4.22;;;2.80;;
26530;SDS011;14201;43.188;24.160;2023-02-17T11:23:55;6.30;;;3.33;;
26530;SDS011;14201;43.188;24.160;2023-02-17T11:26:26;5.05;;;3.58;;
26530;SDS011;14201;43.188;24.160;2023-02-17T11:28:53;5.63;;;3.05;;
26530;SDS011;14201;43.188;24.160;2023-02-17T11:31:26;7.93;;;3.20;;
26530;SDS011;14201;43.188;24.160;2023-02-17T11:33:54;4.65;;;3.22;;
26530;SDS011;14201;43.188;24.160;2023-02-17T11:36:22;6.90;;;3.70;;
26530;SDS011;14201;43.188;24.160;2023-02-17T11:38:53;5.82;;;3.30;;
26530;SDS011;14201;43.188;24.160;2023-02-17T11:41:19;6.68;;;3.72;;
26530;SDS011;14201;43.188;24.160;2023-02-17T11:43:52;6.65;;;4.05;;
26530;SDS011;14201;43.188;24.160;2023-02-17T11:51:32;9.43;;;3.95;;
26530;SDS011;14201;43.188;24.160;2023-02-17T12:02:51;9.13;;;4.10;;
26530;SDS011;14201;43.188;24.160;2023-02-17T12:05:55;8.00;;;4.25;;
26530;SDS011;14201;43.188;24.160;2023-02-17T12:16:16;7.13;;;3.95;;
26530;SDS011;14201;43.188;24.160;2023-02-17T12:19:34;7.10;;;4.47;;
26530;SDS011;14201;43.188;24.160;2023-02-17T12:24:22;8.77;;;4.63;;
26530;SDS011;14201;43.188;24.160;2023-02-17T12:27:21;8.23;;;4.57;;
26530;SDS011;14201;43.188;24.160;2023-02-17T12:30:17;7.18;;;4.40;;
26530;SDS011;14201;43.188;24.160;2023-02-17T12:36:08;7.40;;;4.70;;
26530;SDS011;14201;43.188;24.160;2023-02-17T12:38:33;6.57;;;4.55;;
26530;SDS011;14201;43.188;24.160;2023-02-17T12:43:44;6.97;;;4.55;;
26530;SDS011;14201;43.188;24.160;2023-02-17T12:46:34;9.98;;;4.97;;
26530;SDS011;14201;43.188;24.160;2023-02-17T12:49:15;7.22;;;4.72;;
26530;SDS011;14201;43.188;24.160;2023-02-17T12:52:17;7.00;;;4.85;;
26530;SDS011;14201;43.188;24.160;2023-02-17T12:54:54;8.98;;;5.43;;
26530;SDS011;14201;43.188;24.160;2023-02-17T13:00:31;7.63;;;5.20;;
26530;SDS011;14201;43.188;24.160;2023-02-17T13:03:01;9.13;;;5.35;;
26530;SDS011;14201;43.188;24.160;2023-02-17T13:11:12;7.95;;;4.80;;
26530;SDS011;14201;43.188;24.160;2023-02-17T13:13:49;6.82;;;4.28;;
26530;SDS011;14201;43.188;24.160;2023-02-17T13:16:15;7.40;;;5.20;;
26530;SDS011;14201;43.188;24.160;2023-02-17T13:18:42;9.07;;;4.95;;
26530;SDS011;14201;43.188;24.160;2023-02-17T13:24:05;7.75;;;4.80;;
26530;SDS011;14201;43.188;24.160;2023-02-17T13:26:38;7.72;;;4.28;;
26530;SDS011;14201;43.188;24.160;2023-02-17T13:29:07;7.75;;;4.40;;
26530;SDS011;14201;43.188;24.160;2023-02-17T13:31:44;9.63;;;4.90;;
26530;SDS011;14201;43.188;24.160;2023-02-17T13:37:45;9.20;;;5.10;;
26530;SDS011;14201;43.188;24.160;2023-02-17T13:45:33;6.25;;;4.45;;
26530;SDS011;14201;43.188;24.160;2023-02-17T13:48:22;7.60;;;4.60;;
26530;SDS011;14201;43.188;24.160;2023-02-17T13:50:50;8.15;;;4.75;;
26530;SDS011;14201;43.188;24.160;2023-02-17T13:55:55;7.00;;;5.00;;
26530;SDS011;14201;43.188;24.160;2023-02-17T13:58:24;7.70;;;4.93;;
26530;SDS011;14201;43.188;24.160;2023-02-17T14:00:52;6.70;;;4.55;;
26530;SDS011;14201;43.188;24.160;2023-02-17T14:06:31;7.20;;;4.70;;
26530;SDS011;14201;43.188;24.160;2023-02-17T14:09:10;10.27;;;4.93;;
26530;SDS011;14201;43.188;24.160;2023-02-17T14:11:49;8.20;;;5.30;;
26530;SDS011;14201;43.188;24.160;2023-02-17T14:14:16;7.07;;;4.68;;
26530;SDS011;14201;43.188;24.160;2023-02-17T14:16:42;10.18;;;5.50;;
26530;SDS011;14201;43.188;24.160;2023-02-17T14:19:10;7.82;;;4.95;;
26530;SDS011;14201;43.188;24.160;2023-02-17T14:21:40;9.32;;;5.28;;
26530;SDS011;14201;43.188;24.160;2023-02-17T14:24:24;8.02;;;5.30;;
26530;SDS011;14201;43.188;24.160;2023-02-17T14:26:55;6.88;;;4.55;;
26530;SDS011;14201;43.188;24.160;2023-02-17T14:29:22;9.55;;;4.60;;
26530;SDS011;14201;43.188;24.160;2023-02-17T14:31:49;21.15;;;5.90;;
26530;SDS011;14201;43.188;24.160;2023-02-17T14:36:44;7.05;;;4.75;;
26530;SDS011;14201;43.188;24.160;2023-02-17T14:39:12;8.45;;;5.43;;
26530;SDS011;14201;43.188;24.160;2023-02-17T14:41:39;11.05;;;5.53;;
26530;SDS011;14201;43.188;24.160;2023-02-17T14:44:05;8.63;;;5.25;;
26530;SDS011;14201;43.188;24.160;2023-02-17T14:46:32;9.82;;;5.30;;
26530;SDS011;14201;43.188;24.160;2023-02-17T14:48:58;6.75;;;4.85;;
26530;SDS011;14201;43.188;24.160;2023-02-17T14:51:24;8.02;;;5.28;;
26530;SDS011;14201;43.188;24.160;2023-02-17T14:53:56;7.93;;;5.47;;
26530;SDS011;14201;43.188;24.160;2023-02-17T14:56:26;7.07;;;5.25;;
26530;SDS011;14201;43.188;24.160;2023-02-17T14:58:59;7.22;;;4.95;;
26530;SDS011;14201;43.188;24.160;2023-02-17T15:01:24;7.30;;;5.30;;
26530;SDS011;14201;43.188;24.160;2023-02-17T15:03:51;7.68;;;5.10;;
26530;SDS011;14201;43.188;24.160;2023-02-17T15:06:18;7.40;;;5.28;;
26530;SDS011;14201;43.188;24.160;2023-02-17T15:08:47;7.47;;;5.00;;
26530;SDS011;14201;43.188;24.160;2023-02-17T15:11:15;8.00;;;4.80;;
26530;SDS011;14201;43.188;24.160;2023-02-17T15:13:51;9.65;;;5.22;;
26530;SDS011;14201;43.188;24.160;2023-02-17T15:16:16;6.78;;;5.22;;
26530;SDS011;14201;43.188;24.160;2023-02-17T15:18:42;8.95;;;5.10;;
26530;SDS011;14201;43.188;24.160;2023-02-17T15:21:41;28.48;;;6.00;;
26530;SDS011;14201;43.188;24.160;2023-02-17T15:24:01;10.25;;;4.80;;
26530;SDS011;14201;43.188;24.160;2023-02-17T15:26:30;5.60;;;3.83;;
26530;SDS011;14201;43.188;24.160;2023-02-17T15:28:56;7.72;;;4.85;;
26530;SDS011;14201;43.188;24.160;2023-02-17T15:31:23;7.00;;;4.70;;
26530;SDS011;14201;43.188;24.160;2023-02-17T15:33:54;7.85;;;5.57;;
26530;SDS011;14201;43.188;24.160;2023-02-17T15:36:21;9.27;;;4.97;;
26530;SDS011;14201;43.188;24.160;2023-02-17T15:38:47;8.98;;;4.90;;
26530;SDS011;14201;43.188;24.160;2023-02-17T15:41:13;7.15;;;4.75;;
26530;SDS011;14201;43.188;24.160;2023-02-17T15:43:42;7.38;;;4.57;;
26530;SDS011;14201;43.188;24.160;2023-02-17T15:46:10;8.13;;;5.10;;
26530;SDS011;14201;43.188;24.160;2023-02-17T15:48:38;8.48;;;5.10;;
26530;SDS011;14201;43.188;24.160;2023-02-17T15:51:04;8.63;;;5.05;;
26530;SDS011;14201;43.188;24.160;2023-02-17T15:53:30;9.50;;;5.05;;
26530;SDS011;14201;43.188;24.160;2023-02-17T15:55:57;9.60;;;5.45;;
26530;SDS011;14201;43.188;24.160;2023-02-17T15:58:26;7.40;;;5.18;;
26530;SDS011;14201;43.188;24.160;2023-02-17T16:00:55;8.57;;;5.38;;
26530;SDS011;14201;43.188;24.160;2023-02-17T16:03:25;15.15;;;5.00;;
26530;SDS011;14201;43.188;24.160;2023-02-17T16:05:51;11.20;;;4.82;;
26530;SDS011;14201;43.188;24.160;2023-02-17T16:08:17;7.57;;;5.18;;
26530;SDS011;14201;43.188;24.160;2023-02-17T16:10:43;11.98;;;4.97;;
26530;SDS011;14201;43.188;24.160;2023-02-17T16:13:11;8.52;;;5.35;;
26530;SDS011;14201;43.188;24.160;2023-02-17T16:15:39;8.60;;;5.60;;
26530;SDS011;14201;43.188;24.160;2023-02-17T16:18:08;6.93;;;5.07;;
26530;SDS011;14201;43.188;24.160;2023-02-17T16:20:40;8.70;;;5.85;;
26530;SDS011;14201;43.188;24.160;2023-02-17T16:23:06;8.90;;;5.43;;
26530;SDS011;14201;43.188;24.160;2023-02-17T16:25:31;7.60;;;5.13;;
26530;SDS011;14201;43.188;24.160;2023-02-17T16:27:57;9.43;;;5.72;;
26530;SDS011;14201;43.188;24.160;2023-02-17T16:32:51;8.52;;;5.45;;
26530;SDS011;14201;43.188;24.160;2023-02-17T16:35:21;7.78;;;5.30;;
26530;SDS011;14201;43.188;24.160;2023-02-17T16:40:22;10.18;;;6.15;;
26530;SDS011;14201;43.188;24.160;2023-02-17T16:42:50;8.73;;;5.22;;
26530;SDS011;14201;43.188;24.160;2023-02-17T16:45:16;8.10;;;5.40;;
26530;SDS011;14201;43.188;24.160;2023-02-17T16:47:45;9.38;;;5.43;;
26530;SDS011;14201;43.188;24.160;2023-02-17T16:50:17;6.97;;;5.38;;
26530;SDS011;14201;43.188;24.160;2023-02-17T16:52:47;7.80;;;5.43;;
26530;SDS011;14201;43.188;24.160;2023-02-17T16:55:17;7.90;;;5.10;;
26530;SDS011;14201;43.188;24.160;2023-02-17T16:57:44;8.38;;;5.45;;
26530;SDS011;14201;43.188;24.160;2023-02-17T17:00:12;10.70;;;5.47;;
26530;SDS011;14201;43.188;24.160;2023-02-17T17:02:40;5.63;;;3.63;;
26530;SDS011;14201;43.188;24.160;2023-02-17T17:05:07;8.70;;;5.97;;
26530;SDS011;14201;43.188;24.160;2023-02-17T17:07:34;8.15;;;5.28;;
26530;SDS011;14201;43.188;24.160;2023-02-17T17:10:01;8.52;;;5.93;;
26530;SDS011;14201;43.188;24.160;2023-02-17T17:12:27;12.73;;;6.10;;
